sensor_id;sensor_type;location;lat;lon;timestamp;P1;durP1;ratioP1;P2;durP2;ratioP2
37943;SDS011;23767;42.024;23.086;2023-08-06T00:00:47;9.73;;;4.80;;
37943;SDS011;23767;42.024;23.086;2023-08-06T00:03:13;7.77;;;5.03;;
37943;SDS011;23767;42.024;23.086;2023-08-06T00:05:42;8.95;;;5.40;;
37943;SDS011;23767;42.024;23.086;2023-08-06T00:08:08;7.53;;;5.40;;
37943;SDS011;23767;42.024;23.086;2023-08-06T00:10:34;11.85;;;5.75;;
37943;SDS011;23767;42.024;23.086;2023-08-06T00:13:00;7.88;;;5.22;;
37943;SDS011;23767;42.024;23.086;2023-08-06T00:15:26;9.85;;;6.00;;
37943;SDS011;23767;42.024;23.086;2023-08-06T00:17:52;8.07;;;5.57;;
37943;SDS011;23767;42.024;23.086;2023-08-06T00:20:18;7.63;;;5.55;;
37943;SDS011;23767;42.024;23.086;2023-08-06T00:22:45;10.50;;;5.70;;
37943;SDS011;23767;42.024;23.086;2023-08-06T00:25:11;7.75;;;5.47;;
37943;SDS011;23767;42.024;23.086;2023-08-06T00:27:37;9.45;;;6.07;;
37943;SDS011;23767;42.024;23.086;2023-08-06T00:30:03;9.10;;;6.10;;
37943;SDS011;23767;42.024;23.086;2023-08-06T00:32:29;8.95;;;5.78;;
37943;SDS011;23767;42.024;23.086;2023-08-06T00:34:55;8.18;;;5.93;;
37943;SDS011;23767;42.024;23.086;2023-08-06T00:37:21;9.60;;;5.97;;
37943;SDS011;23767;42.024;23.086;2023-08-06T00:39:47;10.35;;;6.50;;
37943;SDS011;23767;42.024;23.086;2023-08-06T00:42:13;8.30;;;5.97;;
37943;SDS011;23767;42.024;23.086;2023-08-06T00:44:41;9.45;;;6.00;;
37943;SDS011;23767;42.024;23.086;2023-08-06T00:47:07;12.15;;;6.25;;
37943;SDS011;23767;42.024;23.086;2023-08-06T00:49:34;9.27;;;5.40;;
37943;SDS011;23767;42.024;23.086;2023-08-06T00:52:00;10.32;;;6.30;;
37943;SDS011;23767;42.024;23.086;2023-08-06T00:54:26;11.60;;;6.95;;
37943;SDS011;23767;42.024;23.086;2023-08-06T00:56:53;10.30;;;6.90;;
37943;SDS011;23767;42.024;23.086;2023-08-06T00:59:19;9.35;;;6.55;;
37943;SDS011;23767;42.024;23.086;2023-08-06T01:01:45;9.95;;;7.43;;
37943;SDS011;23767;42.024;23.086;2023-08-06T01:04:12;9.75;;;6.38;;
37943;SDS011;23767;42.024;23.086;2023-08-06T01:06:45;8.13;;;6.05;;
37943;SDS011;23767;42.024;23.086;2023-08-06T01:14:26;9.75;;;6.53;;
37943;SDS011;23767;42.024;23.086;2023-08-06T01:16:54;9.70;;;6.45;;
37943;SDS011;23767;42.024;23.086;2023-08-06T01:19:21;9.80;;;7.55;;
37943;SDS011;23767;42.024;23.086;2023-08-06T01:21:47;11.20;;;7.60;;
37943;SDS011;23767;42.024;23.086;2023-08-06T01:24:13;10.50;;;7.03;;
37943;SDS011;23767;42.024;23.086;2023-08-06T01:26:42;12.00;;;7.50;;
37943;SDS011;23767;42.024;23.086;2023-08-06T01:29:16;10.32;;;7.13;;
37943;SDS011;23767;42.024;23.086;2023-08-06T01:31:43;10.38;;;6.97;;
37943;SDS011;23767;42.024;23.086;2023-08-06T01:34:43;9.98;;;7.28;;
37943;SDS011;23767;42.024;23.086;2023-08-06T01:39:28;10.73;;;8.23;;
37943;SDS011;23767;42.024;23.086;2023-08-06T01:41:54;11.95;;;8.48;;
37943;SDS011;23767;42.024;23.086;2023-08-06T01:44:20;16.50;;;8.35;;
37943;SDS011;23767;42.024;23.086;2023-08-06T01:46:46;16.83;;;9.02;;
37943;SDS011;23767;42.024;23.086;2023-08-06T01:49:12;13.05;;;8.57;;
37943;SDS011;23767;42.024;23.086;2023-08-06T01:51:38;11.65;;;7.82;;
37943;SDS011;23767;42.024;23.086;2023-08-06T01:54:04;10.15;;;8.48;;
37943;SDS011;23767;42.024;23.086;2023-08-06T01:56:30;17.67;;;11.15;;
37943;SDS011;23767;42.024;23.086;2023-08-06T01:58:56;13.05;;;8.77;;
37943;SDS011;23767;42.024;23.086;2023-08-06T02:01:22;11.75;;;9.50;;
37943;SDS011;23767;42.024;23.086;2023-08-06T02:03:48;14.35;;;9.38;;
37943;SDS011;23767;42.024;23.086;2023-08-06T02:06:14;15.70;;;9.52;;
37943;SDS011;23767;42.024;23.086;2023-08-06T02:08:40;12.82;;;9.40;;
37943;SDS011;23767;42.024;23.086;2023-08-06T02:11:06;10.88;;;9.48;;
37943;SDS011;23767;42.024;23.086;2023-08-06T02:13:32;8.85;;;7.20;;
37943;SDS011;23767;42.024;23.086;2023-08-06T02:15:58;8.40;;;6.63;;
37943;SDS011;23767;42.024;23.086;2023-08-06T02:18:24;9.07;;;6.40;;
37943;SDS011;23767;42.024;23.086;2023-08-06T02:20:57;10.68;;;6.70;;
37943;SDS011;23767;42.024;23.086;2023-08-06T02:23:23;9.38;;;7.07;;
37943;SDS011;23767;42.024;23.086;2023-08-06T02:28:25;9.57;;;6.45;;
37943;SDS011;23767;42.024;23.086;2023-08-06T02:30:51;10.93;;;6.40;;
37943;SDS011;23767;42.024;23.086;2023-08-06T02:33:17;10.55;;;6.65;;
37943;SDS011;23767;42.024;23.086;2023-08-06T02:35:43;10.13;;;7.15;;
37943;SDS011;23767;42.024;23.086;2023-08-06T02:38:09;10.52;;;7.50;;
37943;SDS011;23767;42.024;23.086;2023-08-06T02:40:35;11.18;;;7.63;;
37943;SDS011;23767;42.024;23.086;2023-08-06T02:43:01;11.70;;;7.38;;
37943;SDS011;23767;42.024;23.086;2023-08-06T02:45:28;10.27;;;7.00;;
37943;SDS011;23767;42.024;23.086;2023-08-06T02:47:54;13.55;;;8.10;;
37943;SDS011;23767;42.024;23.086;2023-08-06T02:50:20;9.63;;;5.95;;
37943;SDS011;23767;42.024;23.086;2023-08-06T02:52:46;10.95;;;6.72;;
37943;SDS011;23767;42.024;23.086;2023-08-06T02:55:12;12.52;;;6.68;;
37943;SDS011;23767;42.024;23.086;2023-08-06T02:57:38;11.30;;;7.57;;
37943;SDS011;23767;42.024;23.086;2023-08-06T03:00:04;10.93;;;7.50;;
37943;SDS011;23767;42.024;23.086;2023-08-06T03:02:31;10.10;;;7.93;;
37943;SDS011;23767;42.024;23.086;2023-08-06T03:04:57;13.57;;;8.27;;
37943;SDS011;23767;42.024;23.086;2023-08-06T03:07:23;13.32;;;7.97;;
37943;SDS011;23767;42.024;23.086;2023-08-06T03:09:49;11.68;;;7.50;;
37943;SDS011;23767;42.024;23.086;2023-08-06T03:12:15;9.27;;;7.05;;
37943;SDS011;23767;42.024;23.086;2023-08-06T03:14:41;12.00;;;7.57;;
37943;SDS011;23767;42.024;23.086;2023-08-06T03:17:07;9.75;;;6.90;;
37943;SDS011;23767;42.024;23.086;2023-08-06T03:19:33;10.65;;;7.13;;
37943;SDS011;23767;42.024;23.086;2023-08-06T03:21:59;10.85;;;7.47;;
37943;SDS011;23767;42.024;23.086;2023-08-06T03:24:25;11.70;;;8.05;;
37943;SDS011;23767;42.024;23.086;2023-08-06T03:26:51;12.05;;;8.35;;
37943;SDS011;23767;42.024;23.086;2023-08-06T03:29:17;11.45;;;9.00;;
37943;SDS011;23767;42.024;23.086;2023-08-06T03:31:43;12.32;;;8.65;;
37943;SDS011;23767;42.024;23.086;2023-08-06T03:34:09;10.88;;;8.73;;
37943;SDS011;23767;42.024;23.086;2023-08-06T03:36:35;13.85;;;9.90;;
37943;SDS011;23767;42.024;23.086;2023-08-06T03:39:01;17.17;;;9.68;;
37943;SDS011;23767;42.024;23.086;2023-08-06T03:41:28;12.18;;;9.68;;
37943;SDS011;23767;42.024;23.086;2023-08-06T03:43:54;12.52;;;10.00;;
37943;SDS011;23767;42.024;23.086;2023-08-06T03:46:20;13.40;;;10.30;;
37943;SDS011;23767;42.024;23.086;2023-08-06T03:48:46;16.00;;;12.50;;
37943;SDS011;23767;42.024;23.086;2023-08-06T03:51:12;14.70;;;12.85;;
37943;SDS011;23767;42.024;23.086;2023-08-06T03:53:38;13.82;;;12.43;;
37943;SDS011;23767;42.024;23.086;2023-08-06T03:56:04;14.45;;;11.60;;
37943;SDS011;23767;42.024;23.086;2023-08-06T03:58:30;13.65;;;11.82;;
37943;SDS011;23767;42.024;23.086;2023-08-06T04:00:59;13.95;;;11.35;;
37943;SDS011;23767;42.024;23.086;2023-08-06T04:03:25;15.18;;;12.70;;
37943;SDS011;23767;42.024;23.086;2023-08-06T04:05:52;13.70;;;12.00;;
37943;SDS011;23767;42.024;23.086;2023-08-06T04:08:18;14.00;;;12.15;;
37943;SDS011;23767;42.024;23.086;2023-08-06T04:10:44;14.38;;;12.48;;
37943;SDS011;23767;42.024;23.086;2023-08-06T04:13:10;14.57;;;12.55;;
37943;SDS011;23767;42.024;23.086;2023-08-06T04:15:36;14.15;;;12.45;;
37943;SDS011;23767;42.024;23.086;2023-08-06T04:18:02;13.55;;;12.07;;
37943;SDS011;23767;42.024;23.086;2023-08-06T04:20:28;13.13;;;11.63;;
37943;SDS011;23767;42.024;23.086;2023-08-06T04:22:54;12.95;;;10.93;;
37943;SDS011;23767;42.024;23.086;2023-08-06T04:25:20;13.70;;;11.02;;
37943;SDS011;23767;42.024;23.086;2023-08-06T04:27:47;14.13;;;10.80;;
37943;SDS011;23767;42.024;23.086;2023-08-06T04:30:13;12.35;;;11.00;;
37943;SDS011;23767;42.024;23.086;2023-08-06T04:32:39;13.75;;;11.90;;
37943;SDS011;23767;42.024;23.086;2023-08-06T04:35:05;13.65;;;10.93;;
37943;SDS011;23767;42.024;23.086;2023-08-06T04:37:32;12.38;;;11.00;;
37943;SDS011;23767;42.024;23.086;2023-08-06T04:39:58;18.42;;;12.23;;
37943;SDS011;23767;42.024;23.086;2023-08-06T04:42:24;14.52;;;12.05;;
37943;SDS011;23767;42.024;23.086;2023-08-06T04:44:50;14.30;;;11.27;;
37943;SDS011;23767;42.024;23.086;2023-08-06T04:47:16;12.30;;;11.05;;
37943;SDS011;23767;42.024;23.086;2023-08-06T04:49:42;12.35;;;10.88;;
37943;SDS011;23767;42.024;23.086;2023-08-06T04:52:08;12.90;;;11.30;;
37943;SDS011;23767;42.024;23.086;2023-08-06T04:54:34;15.18;;;11.75;;
37943;SDS011;23767;42.024;23.086;2023-08-06T04:57:00;14.57;;;12.35;;
37943;SDS011;23767;42.024;23.086;2023-08-06T04:59:26;14.77;;;13.20;;
37943;SDS011;23767;42.024;23.086;2023-08-06T05:01:52;14.60;;;12.88;;
37943;SDS011;23767;42.024;23.086;2023-08-06T05:04:18;17.05;;;13.55;;
37943;SDS011;23767;42.024;23.086;2023-08-06T05:06:44;14.35;;;12.85;;
37943;SDS011;23767;42.024;23.086;2023-08-06T05:09:10;14.75;;;12.40;;
37943;SDS011;23767;42.024;23.086;2023-08-06T05:11:36;13.00;;;11.55;;
37943;SDS011;23767;42.024;23.086;2023-08-06T05:14:02;11.90;;;10.70;;
37943;SDS011;23767;42.024;23.086;2023-08-06T05:16:28;13.00;;;11.45;;
37943;SDS011;23767;42.024;23.086;2023-08-06T05:18:54;12.02;;;10.88;;
37943;SDS011;23767;42.024;23.086;2023-08-06T05:21:20;12.32;;;11.10;;
37943;SDS011;23767;42.024;23.086;2023-08-06T05:23:46;12.00;;;10.60;;
37943;SDS011;23767;42.024;23.086;2023-08-06T05:26:12;13.73;;;12.43;;
37943;SDS011;23767;42.024;23.086;2023-08-06T05:28:40;13.27;;;11.27;;
37943;SDS011;23767;42.024;23.086;2023-08-06T05:31:06;14.00;;;10.93;;
37943;SDS011;23767;42.024;23.086;2023-08-06T05:33:32;12.55;;;11.00;;
37943;SDS011;23767;42.024;23.086;2023-08-06T05:35:58;11.82;;;10.65;;
37943;SDS011;23767;42.024;23.086;2023-08-06T05:38:24;11.88;;;10.73;;
37943;SDS011;23767;42.024;23.086;2023-08-06T05:40:50;12.70;;;10.85;;
37943;SDS011;23767;42.024;23.086;2023-08-06T05:43:16;13.45;;;11.40;;
37943;SDS011;23767;42.024;23.086;2023-08-06T05:45:45;11.43;;;10.23;;
37943;SDS011;23767;42.024;23.086;2023-08-06T05:48:12;12.57;;;9.63;;
37943;SDS011;23767;42.024;23.086;2023-08-06T05:50:38;11.23;;;10.02;;
37943;SDS011;23767;42.024;23.086;2023-08-06T05:53:04;13.43;;;9.50;;
37943;SDS011;23767;42.024;23.086;2023-08-06T05:55:30;11.52;;;9.13;;
37943;SDS011;23767;42.024;23.086;2023-08-06T05:57:57;12.35;;;9.70;;
37943;SDS011;23767;42.024;23.086;2023-08-06T06:00:23;10.40;;;9.30;;
37943;SDS011;23767;42.024;23.086;2023-08-06T06:02:49;12.75;;;10.32;;
37943;SDS011;23767;42.024;23.086;2023-08-06T06:05:16;12.45;;;9.55;;
37943;SDS011;23767;42.024;23.086;2023-08-06T06:07:42;10.73;;;9.32;;
37943;SDS011;23767;42.024;23.086;2023-08-06T06:10:08;10.68;;;9.57;;
37943;SDS011;23767;42.024;23.086;2023-08-06T06:12:34;13.05;;;9.98;;
37943;SDS011;23767;42.024;23.086;2023-08-06T06:15:00;10.85;;;9.75;;
37943;SDS011;23767;42.024;23.086;2023-08-06T06:17:27;13.75;;;9.40;;
37943;SDS011;23767;42.024;23.086;2023-08-06T06:19:53;12.05;;;9.93;;
37943;SDS011;23767;42.024;23.086;2023-08-06T06:22:19;10.18;;;8.80;;
37943;SDS011;23767;42.024;23.086;2023-08-06T06:24:45;11.00;;;9.10;;
37943;SDS011;23767;42.024;23.086;2023-08-06T06:27:11;10.38;;;8.50;;
37943;SDS011;23767;42.024;23.086;2023-08-06T06:29:37;11.80;;;9.65;;
37943;SDS011;23767;42.024;23.086;2023-08-06T06:32:03;12.75;;;9.52;;
37943;SDS011;23767;42.024;23.086;2023-08-06T06:34:29;11.70;;;8.52;;
37943;SDS011;23767;42.024;23.086;2023-08-06T06:36:55;10.00;;;8.75;;
37943;SDS011;23767;42.024;23.086;2023-08-06T06:39:21;9.43;;;8.10;;
37943;SDS011;23767;42.024;23.086;2023-08-06T06:41:47;10.32;;;8.35;;
37943;SDS011;23767;42.024;23.086;2023-08-06T06:44:13;9.70;;;7.90;;
37943;SDS011;23767;42.024;23.086;2023-08-06T06:46:40;10.10;;;7.20;;
37943;SDS011;23767;42.024;23.086;2023-08-06T06:49:06;10.48;;;7.57;;
37943;SDS011;23767;42.024;23.086;2023-08-06T06:51:32;8.68;;;6.80;;
37943;SDS011;23767;42.024;23.086;2023-08-06T06:53:58;7.03;;;6.30;;
37943;SDS011;23767;42.024;23.086;2023-08-06T06:56:24;7.60;;;6.80;;
37943;SDS011;23767;42.024;23.086;2023-08-06T06:58:50;6.82;;;5.78;;
37943;SDS011;23767;42.024;23.086;2023-08-06T07:01:16;9.30;;;6.88;;
37943;SDS011;23767;42.024;23.086;2023-08-06T07:03:42;10.38;;;8.02;;
37943;SDS011;23767;42.024;23.086;2023-08-06T07:06:08;10.73;;;8.00;;
37943;SDS011;23767;42.024;23.086;2023-08-06T07:08:34;7.95;;;7.05;;
37943;SDS011;23767;42.024;23.086;2023-08-06T07:11:04;8.07;;;6.20;;
37943;SDS011;23767;42.024;23.086;2023-08-06T07:13:30;7.55;;;6.55;;
37943;SDS011;23767;42.024;23.086;2023-08-06T07:15:57;9.35;;;6.40;;
37943;SDS011;23767;42.024;23.086;2023-08-06T07:18:23;9.07;;;6.35;;
37943;SDS011;23767;42.024;23.086;2023-08-06T07:20:52;9.98;;;6.10;;
37943;SDS011;23767;42.024;23.086;2023-08-06T07:23:20;7.60;;;6.50;;
37943;SDS011;23767;42.024;23.086;2023-08-06T07:25:46;7.22;;;6.50;;
37943;SDS011;23767;42.024;23.086;2023-08-06T07:28:12;12.32;;;7.53;;
37943;SDS011;23767;42.024;23.086;2023-08-06T07:30:39;9.10;;;7.18;;
37943;SDS011;23767;42.024;23.086;2023-08-06T07:33:05;8.43;;;6.72;;
37943;SDS011;23767;42.024;23.086;2023-08-06T07:35:31;7.30;;;6.60;;
37943;SDS011;23767;42.024;23.086;2023-08-06T07:37:57;7.22;;;6.50;;
37943;SDS011;23767;42.024;23.086;2023-08-06T07:40:23;8.48;;;6.68;;
37943;SDS011;23767;42.024;23.086;2023-08-06T07:42:50;8.57;;;5.88;;
37943;SDS011;23767;42.024;23.086;2023-08-06T07:45:16;6.72;;;5.20;;
37943;SDS011;23767;42.024;23.086;2023-08-06T07:47:42;7.57;;;5.32;;
37943;SDS011;23767;42.024;23.086;2023-08-06T07:50:08;8.43;;;4.85;;
37943;SDS011;23767;42.024;23.086;2023-08-06T07:52:35;5.57;;;4.03;;
37943;SDS011;23767;42.024;23.086;2023-08-06T07:55:01;7.18;;;4.78;;
37943;SDS011;23767;42.024;23.086;2023-08-06T07:57:30;6.47;;;4.00;;
37943;SDS011;23767;42.024;23.086;2023-08-06T07:59:56;9.23;;;4.00;;
37943;SDS011;23767;42.024;23.086;2023-08-06T08:02:22;6.18;;;3.72;;
37943;SDS011;23767;42.024;23.086;2023-08-06T08:04:48;8.23;;;3.60;;
37943;SDS011;23767;42.024;23.086;2023-08-06T08:07:15;6.00;;;3.00;;
37943;SDS011;23767;42.024;23.086;2023-08-06T08:09:41;7.05;;;3.28;;
37943;SDS011;23767;42.024;23.086;2023-08-06T08:12:07;4.95;;;3.00;;
37943;SDS011;23767;42.024;23.086;2023-08-06T08:14:33;5.55;;;3.30;;
37943;SDS011;23767;42.024;23.086;2023-08-06T08:17:04;4.30;;;3.00;;
37943;SDS011;23767;42.024;23.086;2023-08-06T08:19:31;4.82;;;2.95;;
37943;SDS011;23767;42.024;23.086;2023-08-06T08:21:57;4.70;;;2.80;;
37943;SDS011;23767;42.024;23.086;2023-08-06T08:24:23;4.35;;;2.80;;
37943;SDS011;23767;42.024;23.086;2023-08-06T08:26:50;5.20;;;3.03;;
37943;SDS011;23767;42.024;23.086;2023-08-06T08:29:16;5.25;;;2.90;;
37943;SDS011;23767;42.024;23.086;2023-08-06T08:31:42;5.45;;;3.05;;
37943;SDS011;23767;42.024;23.086;2023-08-06T08:34:09;4.40;;;2.60;;
37943;SDS011;23767;42.024;23.086;2023-08-06T08:36:35;4.72;;;2.63;;
37943;SDS011;23767;42.024;23.086;2023-08-06T08:39:01;5.78;;;2.90;;
37943;SDS011;23767;42.024;23.086;2023-08-06T08:41:28;4.97;;;2.70;;
37943;SDS011;23767;42.024;23.086;2023-08-06T08:43:55;5.03;;;3.00;;
37943;SDS011;23767;42.024;23.086;2023-08-06T08:46:21;5.90;;;2.42;;
37943;SDS011;23767;42.024;23.086;2023-08-06T08:48:48;4.88;;;2.60;;
37943;SDS011;23767;42.024;23.086;2023-08-06T08:51:14;4.68;;;2.75;;
37943;SDS011;23767;42.024;23.086;2023-08-06T08:53:40;5.18;;;2.80;;
37943;SDS011;23767;42.024;23.086;2023-08-06T08:56:07;4.65;;;2.40;;
37943;SDS011;23767;42.024;23.086;2023-08-06T08:58:33;7.53;;;2.78;;
37943;SDS011;23767;42.024;23.086;2023-08-06T09:00:59;4.50;;;2.42;;
37943;SDS011;23767;42.024;23.086;2023-08-06T09:03:26;3.53;;;2.10;;
37943;SDS011;23767;42.024;23.086;2023-08-06T09:05:53;3.95;;;2.47;;
37943;SDS011;23767;42.024;23.086;2023-08-06T09:08:21;4.53;;;2.45;;
37943;SDS011;23767;42.024;23.086;2023-08-06T09:10:49;4.90;;;2.35;;
37943;SDS011;23767;42.024;23.086;2023-08-06T09:13:17;5.65;;;2.30;;
37943;SDS011;23767;42.024;23.086;2023-08-06T09:15:44;4.10;;;2.50;;
37943;SDS011;23767;42.024;23.086;2023-08-06T09:18:11;5.30;;;2.40;;
37943;SDS011;23767;42.024;23.086;2023-08-06T09:20:38;4.07;;;2.25;;
37943;SDS011;23767;42.024;23.086;2023-08-06T09:23:08;4.35;;;2.42;;
37943;SDS011;23767;42.024;23.086;2023-08-06T09:25:36;5.40;;;2.65;;
37943;SDS011;23767;42.024;23.086;2023-08-06T09:28:03;3.55;;;2.08;;
37943;SDS011;23767;42.024;23.086;2023-08-06T09:30:30;4.70;;;2.53;;
37943;SDS011;23767;42.024;23.086;2023-08-06T09:32:57;5.70;;;2.70;;
37943;SDS011;23767;42.024;23.086;2023-08-06T09:35:23;6.32;;;2.90;;
37943;SDS011;23767;42.024;23.086;2023-08-06T09:37:49;4.05;;;2.58;;
37943;SDS011;23767;42.024;23.086;2023-08-06T09:40:48;8.02;;;3.22;;
37943;SDS011;23767;42.024;23.086;2023-08-06T09:43:07;4.85;;;2.50;;
37943;SDS011;23767;42.024;23.086;2023-08-06T09:45:34;4.13;;;2.40;;
37943;SDS011;23767;42.024;23.086;2023-08-06T09:48:05;5.38;;;2.30;;
37943;SDS011;23767;42.024;23.086;2023-08-06T09:50:33;5.30;;;3.00;;
37943;SDS011;23767;42.024;23.086;2023-08-06T09:53:01;4.55;;;2.85;;
37943;SDS011;23767;42.024;23.086;2023-08-06T09:55:27;8.18;;;3.38;;
37943;SDS011;23767;42.024;23.086;2023-08-06T09:57:53;8.70;;;3.67;;
37943;SDS011;23767;42.024;23.086;2023-08-06T10:00:20;7.28;;;3.33;;
37943;SDS011;23767;42.024;23.086;2023-08-06T10:02:46;6.78;;;3.45;;
37943;SDS011;23767;42.024;23.086;2023-08-06T10:05:14;6.97;;;3.25;;
37943;SDS011;23767;42.024;23.086;2023-08-06T10:07:40;5.55;;;2.47;;
37943;SDS011;23767;42.024;23.086;2023-08-06T10:10:06;5.57;;;3.03;;
37943;SDS011;23767;42.024;23.086;2023-08-06T10:12:43;8.90;;;2.53;;
37943;SDS011;23767;42.024;23.086;2023-08-06T10:15:11;3.40;;;1.70;;
37943;SDS011;23767;42.024;23.086;2023-08-06T10:17:37;3.70;;;1.90;;
37943;SDS011;23767;42.024;23.086;2023-08-06T10:20:04;4.22;;;1.98;;
37943;SDS011;23767;42.024;23.086;2023-08-06T10:22:32;4.57;;;1.88;;
37943;SDS011;23767;42.024;23.086;2023-08-06T10:24:58;4.80;;;1.90;;
37943;SDS011;23767;42.024;23.086;2023-08-06T10:32:47;5.97;;;2.00;;
37943;SDS011;23767;42.024;23.086;2023-08-06T10:40:39;3.42;;;1.75;;
37943;SDS011;23767;42.024;23.086;2023-08-06T10:43:05;2.72;;;1.58;;
37943;SDS011;23767;42.024;23.086;2023-08-06T10:45:34;3.55;;;1.58;;
37943;SDS011;23767;42.024;23.086;2023-08-06T10:48:00;2.95;;;1.50;;
37943;SDS011;23767;42.024;23.086;2023-08-06T10:50:26;3.17;;;1.60;;
37943;SDS011;23767;42.024;23.086;2023-08-06T10:52:52;3.42;;;1.67;;
37943;SDS011;23767;42.024;23.086;2023-08-06T10:55:36;3.40;;;1.70;;
37943;SDS011;23767;42.024;23.086;2023-08-06T10:58:03;4.05;;;1.70;;
37943;SDS011;23767;42.024;23.086;2023-08-06T11:00:29;4.82;;;2.05;;
37943;SDS011;23767;42.024;23.086;2023-08-06T11:02:55;3.90;;;2.00;;
37943;SDS011;23767;42.024;23.086;2023-08-06T11:05:21;3.88;;;1.83;;
37943;SDS011;23767;42.024;23.086;2023-08-06T11:07:47;4.15;;;1.80;;
37943;SDS011;23767;42.024;23.086;2023-08-06T11:10:14;4.22;;;2.03;;
37943;SDS011;23767;42.024;23.086;2023-08-06T11:12:40;4.18;;;1.80;;
37943;SDS011;23767;42.024;23.086;2023-08-06T11:15:07;4.75;;;1.67;;
37943;SDS011;23767;42.024;23.086;2023-08-06T11:17:33;3.17;;;1.90;;
37943;SDS011;23767;42.024;23.086;2023-08-06T11:20:00;3.17;;;1.90;;
37943;SDS011;23767;42.024;23.086;2023-08-06T11:22:27;3.78;;;1.85;;
37943;SDS011;23767;42.024;23.086;2023-08-06T11:24:53;3.25;;;1.85;;
37943;SDS011;23767;42.024;23.086;2023-08-06T11:27:19;3.83;;;1.80;;
37943;SDS011;23767;42.024;23.086;2023-08-06T11:29:45;3.65;;;1.90;;
37943;SDS011;23767;42.024;23.086;2023-08-06T11:32:12;3.75;;;1.83;;
37943;SDS011;23767;42.024;23.086;2023-08-06T11:34:38;3.30;;;1.73;;
37943;SDS011;23767;42.024;23.086;2023-08-06T11:37:05;4.18;;;1.90;;
37943;SDS011;23767;42.024;23.086;2023-08-06T11:39:35;5.05;;;1.80;;
37943;SDS011;23767;42.024;23.086;2023-08-06T11:42:05;2.88;;;1.70;;
37943;SDS011;23767;42.024;23.086;2023-08-06T11:44:32;3.78;;;1.92;;
37943;SDS011;23767;42.024;23.086;2023-08-06T11:46:58;3.35;;;1.83;;
37943;SDS011;23767;42.024;23.086;2023-08-06T11:54:44;4.15;;;1.63;;
37943;SDS011;23767;42.024;23.086;2023-08-06T11:57:10;2.47;;;1.40;;
37943;SDS011;23767;42.024;23.086;2023-08-06T11:59:37;3.22;;;1.65;;
37943;SDS011;23767;42.024;23.086;2023-08-06T12:02:04;2.80;;;1.60;;
37943;SDS011;23767;42.024;23.086;2023-08-06T12:04:31;5.03;;;1.98;;
37943;SDS011;23767;42.024;23.086;2023-08-06T12:07:06;4.45;;;1.60;;
37943;SDS011;23767;42.024;23.086;2023-08-06T12:09:33;6.75;;;1.70;;
37943;SDS011;23767;42.024;23.086;2023-08-06T12:12:01;3.90;;;1.90;;
37943;SDS011;23767;42.024;23.086;2023-08-06T12:14:28;2.83;;;1.42;;
37943;SDS011;23767;42.024;23.086;2023-08-06T12:16:54;5.95;;;1.95;;
37943;SDS011;23767;42.024;23.086;2023-08-06T12:19:20;4.10;;;1.80;;
37943;SDS011;23767;42.024;23.086;2023-08-06T12:21:46;2.88;;;1.52;;
37943;SDS011;23767;42.024;23.086;2023-08-06T12:24:12;3.78;;;1.83;;
37943;SDS011;23767;42.024;23.086;2023-08-06T12:26:38;3.58;;;1.70;;
37943;SDS011;23767;42.024;23.086;2023-08-06T12:29:04;3.22;;;1.60;;
37943;SDS011;23767;42.024;23.086;2023-08-06T12:31:30;2.58;;;1.40;;
37943;SDS011;23767;42.024;23.086;2023-08-06T12:33:56;2.95;;;1.33;;
37943;SDS011;23767;42.024;23.086;2023-08-06T12:36:22;3.63;;;1.80;;
37943;SDS011;23767;42.024;23.086;2023-08-06T12:38:48;3.95;;;1.63;;
37943;SDS011;23767;42.024;23.086;2023-08-06T12:41:14;4.10;;;1.55;;
37943;SDS011;23767;42.024;23.086;2023-08-06T12:43:40;8.20;;;1.75;;
37943;SDS011;23767;42.024;23.086;2023-08-06T12:46:06;4.20;;;1.80;;
37943;SDS011;23767;42.024;23.086;2023-08-06T12:48:32;2.85;;;1.65;;
37943;SDS011;23767;42.024;23.086;2023-08-06T12:50:58;3.33;;;1.65;;
37943;SDS011;23767;42.024;23.086;2023-08-06T12:53:24;4.65;;;1.73;;
37943;SDS011;23767;42.024;23.086;2023-08-06T12:55:50;4.43;;;1.83;;
37943;SDS011;23767;42.024;23.086;2023-08-06T12:58:16;3.55;;;1.60;;
37943;SDS011;23767;42.024;23.086;2023-08-06T13:00:42;3.67;;;1.70;;
37943;SDS011;23767;42.024;23.086;2023-08-06T13:03:08;4.15;;;1.60;;
37943;SDS011;23767;42.024;23.086;2023-08-06T13:05:34;3.35;;;1.52;;
37943;SDS011;23767;42.024;23.086;2023-08-06T13:08:02;3.42;;;1.52;;
37943;SDS011;23767;42.024;23.086;2023-08-06T13:10:28;4.00;;;1.45;;
37943;SDS011;23767;42.024;23.086;2023-08-06T13:12:54;4.13;;;1.58;;
37943;SDS011;23767;42.024;23.086;2023-08-06T13:15:20;2.35;;;1.20;;
37943;SDS011;23767;42.024;23.086;2023-08-06T13:17:47;3.42;;;1.60;;
37943;SDS011;23767;42.024;23.086;2023-08-06T13:20:13;4.63;;;1.50;;
37943;SDS011;23767;42.024;23.086;2023-08-06T13:22:39;4.70;;;1.88;;
37943;SDS011;23767;42.024;23.086;2023-08-06T13:25:05;3.05;;;1.27;;
37943;SDS011;23767;42.024;23.086;2023-08-06T13:27:31;2.53;;;1.10;;
37943;SDS011;23767;42.024;23.086;2023-08-06T13:29:57;2.55;;;1.40;;
37943;SDS011;23767;42.024;23.086;2023-08-06T13:32:23;3.97;;;1.27;;
37943;SDS011;23767;42.024;23.086;2023-08-06T13:34:49;2.95;;;1.40;;
37943;SDS011;23767;42.024;23.086;2023-08-06T13:37:15;3.90;;;1.20;;
37943;SDS011;23767;42.024;23.086;2023-08-06T13:39:41;1.85;;;0.90;;
37943;SDS011;23767;42.024;23.086;2023-08-06T13:42:07;5.28;;;1.30;;
37943;SDS011;23767;42.024;23.086;2023-08-06T13:44:34;2.22;;;0.90;;
37943;SDS011;23767;42.024;23.086;2023-08-06T13:47:01;1.88;;;1.00;;
37943;SDS011;23767;42.024;23.086;2023-08-06T13:49:27;2.75;;;1.10;;
37943;SDS011;23767;42.024;23.086;2023-08-06T13:51:53;2.65;;;1.02;;
37943;SDS011;23767;42.024;23.086;2023-08-06T13:54:19;3.20;;;1.25;;
37943;SDS011;23767;42.024;23.086;2023-08-06T13:56:46;2.03;;;1.00;;
37943;SDS011;23767;42.024;23.086;2023-08-06T13:59:12;0.90;;;0.80;;
37943;SDS011;23767;42.024;23.086;2023-08-06T14:01:39;1.85;;;1.00;;
37943;SDS011;23767;42.024;23.086;2023-08-06T14:04:05;2.53;;;1.10;;
37943;SDS011;23767;42.024;23.086;2023-08-06T14:06:31;1.17;;;0.90;;
37943;SDS011;23767;42.024;23.086;2023-08-06T14:08:57;2.10;;;1.00;;
37943;SDS011;23767;42.024;23.086;2023-08-06T14:11:23;3.85;;;1.10;;
37943;SDS011;23767;42.024;23.086;2023-08-06T14:13:49;2.10;;;1.05;;
37943;SDS011;23767;42.024;23.086;2023-08-06T14:16:15;2.15;;;0.98;;
37943;SDS011;23767;42.024;23.086;2023-08-06T14:18:42;1.75;;;0.95;;
37943;SDS011;23767;42.024;23.086;2023-08-06T14:21:08;2.03;;;0.98;;
37943;SDS011;23767;42.024;23.086;2023-08-06T14:23:34;3.38;;;1.15;;
37943;SDS011;23767;42.024;23.086;2023-08-06T14:26:00;3.00;;;1.20;;
37943;SDS011;23767;42.024;23.086;2023-08-06T14:28:26;2.33;;;1.05;;
37943;SDS011;23767;42.024;23.086;2023-08-06T14:30:52;4.35;;;1.42;;
37943;SDS011;23767;42.024;23.086;2023-08-06T14:33:18;1.85;;;1.00;;
37943;SDS011;23767;42.024;23.086;2023-08-06T14:35:44;2.08;;;1.00;;
37943;SDS011;23767;42.024;23.086;2023-08-06T14:38:10;4.90;;;1.45;;
37943;SDS011;23767;42.024;23.086;2023-08-06T14:40:36;4.20;;;1.17;;
37943;SDS011;23767;42.024;23.086;2023-08-06T14:43:06;2.58;;;0.95;;
37943;SDS011;23767;42.024;23.086;2023-08-06T14:45:32;2.78;;;1.10;;
37943;SDS011;23767;42.024;23.086;2023-08-06T14:47:58;3.08;;;1.10;;
37943;SDS011;23767;42.024;23.086;2023-08-06T14:50:24;2.33;;;0.93;;